الصفحة الرئيسية
METAR-TAF:

METAR-TAF

مطار :

رودس, اليونان

دائرة عرض: 36-24N, خط طول: 028-05E, ارتفاع: 4 متر

مراقبة الطقس الحالي

تاريخ ووقت الإصدار 27 دقيقة قبل الساعة 05:50UTC
ريح 3 عقدةمن اتجاهات متغيرة
درجة الحرارة 16°درجة مئوية
الرطوبة 77%
ضغط 1021 hPa
الرؤية 10 كم أو أكثر
غيوم متفرقة على ارتفاع 1600 قدم

METAR: LGRP 290550Z VRB03KT 9999 SCT016 16/12 Q1021 NOSIG

زمن: 08:17 (06:17 UTC)

توقعات

تاريخ ووقت الإصدار 1ساعة و 17 دقيقة قبل الساعة 05:00UTC
التوقعات صالحة من29 الساعة 06 UTC إلى 01 الساعة 06 UTC
ريح 13 عقدة من الجنوب الشرقي
الرؤية 10 كم أو أكثر
غيوم قليلة على ارتفاع 2000 قدم
مؤقت
من 29 الساعة 07 UTC إلى 29 الساعة 20 UTC
ريح 15 عقدة من الجنوب الشرقي تتزايد حتى 27 عقدة
مؤقت
من 29 الساعة 20 UTC إلى 01 الساعة 06 UTC
ريح 17 عقدة من الجنوب الشرقي تتزايد حتى 37 عقدة
أصبح
من 29 الساعة 22 UTC إلى 29 الساعة 24 UTC
غيوم قليلة على ارتفاع 2000 قدم
غيوم مفككة على ارتفاع 5500 قدم

TAF: LGRP 290500Z 2906/0106 13013KT 9999 FEW020 TEMPO 2907/2920 13015G27KT TEMPO 2920/0106 13017G37KT BECMG 2922/2924 FEW020 BKN055

أرصاد الطقس والتوقعات من أكثر من 4000 مطار (تقارير الطقس للمطار METAR والتنبؤ بالطقس بالمطارTAF).

المحطات المتاحة هي النقط الصفراء والحمراء على الخريطة.

حرك المؤشر فوق النقطة لمعرفة اسم المحطة.

ثم انقر لمعرفة أرصاد وتوقعات الطقس.

لتغيير الخارطة: اضغط على الأزرار الخضراء مع رمز الصليب الأسود للتكبير. على الزر الأخضر مع شرطة للتصغير، أو على الأسهم الخضراء للخرائط المجاورة.


METAR-TAF: